Time;durP1;ratioP1;P1;durP2;ratioP2;P2;SDS_P1;SDS_P2;PMS_P1;PMS_P2;Temp;Humidity;BMP_temperature;BMP_pressure;BME280_temperature;BME280_humidity;BME280_pressure;Samples;Min_cycle;Max_cycle;Signal;HPM_P1;HPM_P2
2023/04/03 00:01:09;;;;;;;4.47;1.60;;;;;;;0.46;100.00;103185.22;5094448;28;20119;-71
2023/04/03 00:03:34;;;;;;;2.75;1.65;;;;;;;0.50;100.00;103186.03;5094357;28;20081;-72
2023/04/03 00:06:00;;;;;;;4.75;1.80;;;;;;;0.49;100.00;103192.16;5094564;28;20185;-72
2023/04/03 00:08:25;;;;;;;3.58;2.00;;;;;;;0.48;100.00;103193.06;5094274;28;20024;-71
2023/04/03 00:10:51;;;;;;;3.15;1.83;;;;;;;0.42;100.00;103187.88;5094323;28;20033;-71
2023/04/03 00:13:16;;;;;;;3.45;1.50;;;;;;;0.38;100.00;103188.81;5094267;28;20028;-71
2023/04/03 00:15:42;;;;;;;4.10;1.80;;;;;;;0.33;100.00;103197.56;5094226;28;20028;-71
2023/04/03 00:18:08;;;;;;;3.10;1.60;;;;;;;0.33;100.00;103191.47;5093853;28;20117;-72
2023/04/03 00:20:34;;;;;;;4.10;1.40;;;;;;;0.34;100.00;103198.41;5093686;28;20477;-72
2023/04/03 00:23:00;;;;;;;2.17;1.58;;;;;;;0.30;100.00;103187.13;5094097;28;20056;-71
2023/04/03 00:25:25;;;;;;;2.40;1.60;;;;;;;0.34;100.00;103193.19;5094421;28;20040;-70
2023/04/03 00:27:51;;;;;;;3.40;1.52;;;;;;;0.32;100.00;103190.56;5093816;28;20043;-71
2023/04/03 00:30:19;;;;;;;3.95;1.73;;;;;;;0.32;100.00;103190.56;5093858;28;20530;-71
2023/04/03 00:32:48;;;;;;;2.40;1.30;;;;;;;0.30;100.00;103192.34;5093853;28;20104;-71
2023/04/03 00:35:15;;;;;;;2.33;1.50;;;;;;;0.25;100.00;103190.66;5093927;28;20032;-72
2023/04/03 00:37:41;;;;;;;4.60;1.63;;;;;;;0.20;100.00;103188.09;5075875;28;20032;-70
2023/04/03 00:40:08;;;;;;;2.05;1.60;;;;;;;0.14;100.00;103191.63;5093785;28;20051;-71
2023/04/03 00:42:33;;;;;;;4.22;1.60;;;;;;;0.09;100.00;103192.53;5093593;28;20055;-71
2023/04/03 00:45:00;;;;;;;4.20;1.50;;;;;;;0.03;100.00;103193.50;5093904;28;20472;-71
2023/04/03 00:47:26;;;;;;;3.75;1.58;;;;;;;0.02;100.00;103198.75;5093526;28;20103;-71
2023/04/03 00:49:53;;;;;;;1.88;1.55;;;;;;;-0.02;100.00;103203.13;5093541;28;20043;-71
2023/04/03 00:52:22;;;;;;;6.75;2.03;;;;;;;-0.05;100.00;103198.75;5093142;28;20034;-71
2023/04/03 00:54:50;;;;;;;4.68;1.83;;;;;;;-0.09;100.00;103193.56;5093679;28;20028;-71
2023/04/03 00:57:16;;;;;;;3.25;1.80;;;;;;;-0.10;100.00;103197.94;5093388;28;20035;-71
2023/04/03 00:59:50;;;;;;;2.55;1.98;;;;;;;-0.10;100.00;103197.09;5093543;28;20062;-71
2023/04/03 01:02:16;;;;;;;1.70;1.40;;;;;;;-0.12;100.00;103207.56;5093490;28;20410;-71
2023/04/03 01:04:43;;;;;;;2.42;1.40;;;;;;;-0.17;100.00;103200.63;5092967;28;20036;-71
2023/04/03 01:07:13;;;;;;;2.80;1.63;;;;;;;-0.21;100.00;103208.50;5093823;28;20027;-71
2023/04/03 01:09:40;;;;;;;4.27;1.77;;;;;;;-0.24;100.00;103205.03;5093413;28;20454;-71
2023/04/03 01:12:22;;;;;;;3.88;1.90;;;;;;;-0.29;100.00;103209.44;5092894;28;20139;-72
2023/04/03 01:14:51;;;;;;;4.18;1.70;;;;;;;-0.31;100.00;103208.56;5093571;28;20020;-72
2023/04/03 01:17:35;;;;;;;4.88;2.13;;;;;;;-0.33;100.00;103203.34;5093321;28;20475;-72
2023/04/03 01:20:28;;;;;;;4.72;1.67;;;;;;;-0.36;100.00;103209.47;5093183;28;20055;-72
2023/04/03 01:23:05;;;;;;;3.60;1.92;;;;;;;-0.31;100.00;103203.31;5093524;28;20038;-72
2023/04/03 01:25:31;;;;;;;3.75;1.52;;;;;;;-0.32;100.00;103210.31;5092890;28;20111;-72
2023/04/03 01:27:57;;;;;;;5.50;1.52;;;;;;;-0.31;100.00;103212.06;5093071;28;20464;-72
2023/04/03 01:30:30;;;;;;;4.10;2.03;;;;;;;-0.32;100.00;103207.69;5093171;28;20036;-70
2023/04/03 01:32:55;;;;;;;3.50;1.90;;;;;;;-0.32;100.00;103207.69;5093300;28;20403;-70
2023/04/03 01:35:21;;;;;;;1.83;1.58;;;;;;;-0.32;100.00;103226.00;5093192;28;20028;-71
2023/04/03 01:37:46;;;;;;;4.00;2.00;;;;;;;-0.33;100.00;103211.19;5092565;28;20036;-70
2023/04/03 01:40:11;;;;;;;4.10;1.83;;;;;;;-0.37;100.00;103214.72;5076605;28;20433;-72
2023/04/03 01:42:37;;;;;;;3.67;1.80;;;;;;;-0.41;100.00;103207.75;5096697;28;20469;-71
2023/04/03 01:45:03;;;;;;;3.13;1.70;;;;;;;-0.46;100.00;103202.56;5097261;28;20032;-72
2023/04/03 01:47:28;;;;;;;7.10;2.13;;;;;;;-0.51;100.00;103208.69;5097002;28;20141;-70
2023/04/03 01:49:53;;;;;;;2.55;1.95;;;;;;;-0.60;100.00;103207.00;5097441;28;20461;-72
2023/04/03 01:52:19;;;;;;;2.65;1.63;;;;;;;-0.63;100.00;103212.25;5096906;28;20036;-72
2023/04/03 01:54:44;;;;;;;5.45;2.13;;;;;;;-0.65;100.00;103212.25;5096871;28;20116;-71
2023/04/03 01:57:10;;;;;;;4.88;2.28;;;;;;;-0.66;100.00;103207.91;5096812;28;20063;-72
2023/04/03 01:59:35;;;;;;;2.05;1.60;;;;;;;-0.67;100.00;103207.91;5096448;28;20488;-71
2023/04/03 02:02:01;;;;;;;4.70;1.80;;;;;;;-0.73;100.00;103217.53;5096676;28;20040;-71
2023/04/03 02:04:26;;;;;;;4.93;1.88;;;;;;;-0.79;100.00;103211.44;5096131;28;20432;-70
2023/04/03 02:06:52;;;;;;;2.72;1.90;;;;;;;-0.86;100.00;103217.63;5096303;28;20123;-71
2023/04/03 02:09:17;;;;;;;2.92;1.85;;;;;;;-0.91;100.00;103226.34;5097073;28;20079;-71
2023/04/03 02:11:42;;;;;;;3.30;2.00;;;;;;;-0.96;100.00;103219.38;5096538;28;20039;-71
2023/04/03 02:14:08;;;;;;;4.10;1.90;;;;;;;-0.99;100.00;103224.63;5078400;28;20128;-70
2023/04/03 02:16:33;;;;;;;4.20;1.80;;;;;;;-1.04;100.00;103226.41;5096584;28;20065;-71
2023/04/03 02:18:59;;;;;;;4.05;1.95;;;;;;;-1.02;100.00;103232.47;5096630;28;20032;-71
2023/04/03 02:21:24;;;;;;;2.88;1.80;;;;;;;-1.05;100.00;103235.97;5096363;28;20024;-70
2023/04/03 02:23:49;;;;;;;3.08;1.80;;;;;;;-1.10;100.00;103230.75;5096423;28;20110;-70
2023/04/03 02:26:16;;;;;;;3.88;1.63;;;;;;;-1.14;100.00;103233.38;5096170;28;20032;-72
2023/04/03 02:28:42;;;;;;;2.13;1.70;;;;;;;-1.16;100.00;103242.97;5077746;28;20024;-71
2023/04/03 02:31:10;;;;;;;4.00;1.80;;;;;;;-1.21;100.00;103242.09;5096509;28;20150;-71
2023/04/03 02:33:36;;;;;;;3.35;1.90;;;;;;;-1.24;100.00;103248.19;5078004;28;20062;-71
2023/04/03 02:36:03;;;;;;;7.63;2.10;;;;;;;-1.26;100.00;103245.59;5096118;28;20028;-71
2023/04/03 02:38:28;;;;;;;3.42;2.03;;;;;;;-1.29;100.00;103244.75;5077739;28;20024;-71
2023/04/03 02:41:02;;;;;;;5.50;1.95;;;;;;;-1.33;100.00;103245.63;5096389;28;20042;-72
2023/04/03 02:43:28;;;;;;;4.28;2.10;;;;;;;-1.33;100.00;103250.84;5096748;28;20034;-71
2023/04/03 02:45:53;;;;;;;4.93;1.95;;;;;;;-1.35;100.00;103247.38;5096103;28;20036;-71
2023/04/03 02:48:18;;;;;;;3.08;2.00;;;;;;;-1.40;100.00;103242.16;5095975;28;20066;-71
2023/04/03 02:50:44;;;;;;;2.35;1.88;;;;;;;-1.45;100.00;103247.41;5095737;28;20043;-72
2023/04/03 02:53:09;;;;;;;2.13;1.70;;;;;;;-1.50;100.00;103248.28;5095714;28;20047;-71
2023/04/03 02:55:35;;;;;;;3.72;1.80;;;;;;;-1.54;100.00;103246.53;5095939;28;20089;-71
2023/04/03 02:58:00;;;;;;;3.78;2.03;;;;;;;-1.58;100.00;103250.00;5095885;28;20032;-71
2023/04/03 03:00:25;;;;;;;3.97;1.95;;;;;;;-1.63;100.00;103252.63;5095481;28;20481;-71
2023/04/03 03:02:51;;;;;;;4.97;2.17;;;;;;;-1.67;100.00;103253.50;5095485;28;20032;-70
2023/04/03 03:05:17;;;;;;;3.15;2.15;;;;;;;-1.69;100.00;103252.63;5073795;28;20049;-70
2023/04/03 03:07:42;;;;;;;3.25;2.28;;;;;;;-1.75;100.00;103245.66;5075242;28;20029;-70
2023/04/03 03:10:08;;;;;;;3.15;1.92;;;;;;;-1.79;100.00;103244.81;5075749;28;20052;-71
2023/04/03 03:12:33;;;;;;;3.03;2.00;;;;;;;-1.79;100.00;103247.41;5075526;28;20067;-70
2023/04/03 03:14:59;;;;;;;4.22;2.15;;;;;;;-1.81;100.00;103250.91;5074841;28;20504;-70
2023/04/03 03:17:24;;;;;;;3.72;1.98;;;;;;;-1.85;100.00;103252.66;5075112;28;20530;-71
2023/04/03 03:19:50;;;;;;;3.53;2.08;;;;;;;-1.88;100.00;103254.38;5074875;28;20040;-71
2023/04/03 03:22:16;;;;;;;5.03;2.30;;;;;;;-1.93;100.00;103249.16;5075053;28;20111;-71
2023/04/03 03:24:41;;;;;;;6.72;2.42;;;;;;;-1.98;100.00;103254.38;5073563;28;20036;-70
2023/04/03 03:27:07;;;;;;;2.67;1.90;;;;;;;-2.01;100.00;103248.28;5074919;28;20032;-70
2023/04/03 03:29:32;;;;;;;3.92;2.20;;;;;;;-2.06;100.00;103250.00;5075426;28;20032;-70
2023/04/03 03:31:57;;;;;;;3.85;2.33;;;;;;;-2.09;100.00;103250.91;5074432;28;20385;-71
2023/04/03 03:34:23;;;;;;;2.50;1.90;;;;;;;-2.10;100.00;103266.56;5075149;28;20028;-71
2023/04/03 03:36:48;;;;;;;3.28;2.30;;;;;;;-2.11;100.00;103267.41;5074752;28;20029;-71
2023/04/03 03:39:13;;;;;;;4.78;2.38;;;;;;;-2.15;100.00;103269.13;5074852;28;20090;-71
2023/04/03 03:41:39;;;;;;;11.90;2.22;;;;;;;-2.16;100.00;103270.00;5075042;28;20075;-71
2023/04/03 03:44:04;;;;;;;6.03;2.30;;;;;;;-2.14;100.00;103278.69;5074739;28;20066;-71
2023/04/03 03:46:30;;;;;;;2.63;2.08;;;;;;;-2.15;100.00;103264.78;5074411;28;20465;-71
2023/04/03 03:48:55;;;;;;;7.25;2.55;;;;;;;-2.15;100.00;103267.41;5073998;28;20036;-71
2023/04/03 03:51:21;;;;;;;5.88;2.55;;;;;;;-2.16;100.00;103273.47;5073213;28;20038;-72
2023/04/03 03:53:46;;;;;;;3.45;2.20;;;;;;;-2.17;100.00;103269.13;5074306;28;20032;-71
2023/04/03 03:56:11;;;;;;;3.83;2.53;;;;;;;-2.18;100.00;103272.63;5074428;28;20079;-71
2023/04/03 03:58:37;;;;;;;4.93;2.40;;;;;;;-2.19;100.00;103270.88;5074577;28;20500;-71
2023/04/03 04:01:05;;;;;;;5.53;2.42;;;;;;;-2.18;100.00;103264.78;5072943;28;20032;-71
2023/04/03 04:03:31;;;;;;;6.03;2.00;;;;;;;-2.15;100.00;103271.72;5073252;28;20029;-71
2023/04/03 04:05:56;;;;;;;3.92;2.30;;;;;;;-2.16;100.00;103268.25;5086498;28;20058;-71
2023/04/03 04:08:22;;;;;;;9.30;2.72;;;;;;;-2.16;100.00;103273.47;5076950;28;20126;-71
2023/04/03 04:10:47;;;;;;;4.18;2.45;;;;;;;-2.15;100.00;103275.22;5094433;28;20032;-71
2023/04/03 04:13:13;;;;;;;5.60;2.40;;;;;;;-2.17;100.00;103266.50;5094414;28;20452;-71
2023/04/03 04:15:38;;;;;;;2.95;1.98;;;;;;;-2.19;100.00;103268.25;5093860;28;20077;-70
2023/04/03 04:18:04;;;;;;;6.53;2.67;;;;;;;-2.22;100.00;103273.47;5093711;28;20025;-71
2023/04/03 04:20:29;;;;;;;6.55;2.58;;;;;;;-2.20;100.00;103279.56;5094185;28;20476;-71
2023/04/03 04:22:55;;;;;;;7.72;2.40;;;;;;;-2.24;100.00;103277.84;5093651;28;20035;-70
2023/04/03 04:25:20;;;;;;;5.65;2.55;;;;;;;-2.26;100.00;103282.16;5094137;28;20052;-71
2023/04/03 04:27:45;;;;;;;7.20;2.65;;;;;;;-2.25;100.00;103288.25;5094016;28;20060;-70
2023/04/03 04:30:11;;;;;;;3.58;2.28;;;;;;;-2.21;100.00;103288.28;5093767;28;20040;-71
2023/04/03 04:32:37;;;;;;;7.55;3.15;;;;;;;-2.21;100.00;103288.28;5093682;28;20032;-71
2023/04/03 04:35:03;;;;;;;3.90;2.20;;;;;;;-2.26;100.00;103282.16;5093658;28;20032;-71
2023/04/03 04:37:29;;;;;;;6.00;2.65;;;;;;;-2.27;100.00;103284.75;5093985;28;20070;-70
2023/04/03 04:39:54;;;;;;;4.47;2.55;;;;;;;-2.30;100.00;103288.22;5093750;28;20082;-71
2023/04/03 04:42:20;;;;;;;3.65;2.47;;;;;;;-2.36;100.00;103285.59;5094101;28;20032;-70
2023/04/03 04:44:45;;;;;;;5.07;2.33;;;;;;;-2.36;100.00;103288.22;5093727;28;20028;-71
2023/04/03 04:47:10;;;;;;;6.40;2.72;;;;;;;-2.38;100.00;103290.81;5075652;28;20034;-71
2023/04/03 04:49:36;;;;;;;6.45;3.10;;;;;;;-2.40;100.00;103289.94;5093876;28;20380;-71
2023/04/03 04:52:01;;;;;;;4.20;2.40;;;;;;;-2.44;100.00;103295.16;5093740;28;20043;-71
2023/04/03 04:54:27;;;;;;;5.15;2.28;;;;;;;-2.50;100.00;103296.84;5093320;28;20397;-71
2023/04/03 04:56:52;;;;;;;5.40;2.83;;;;;;;-2.51;100.00;103295.13;5093459;28;20063;-71
2023/04/03 04:59:17;;;;;;;5.75;2.53;;;;;;;-2.52;100.00;103295.13;5093438;28;20094;-71
2023/04/03 05:01:43;;;;;;;5.30;2.47;;;;;;;-2.53;100.00;103296.84;5093793;28;20035;-70
2023/04/03 05:04:09;;;;;;;10.40;6.40;;;;;;;-2.54;100.00;103297.72;5075126;28;20391;-71
2023/04/03 05:06:34;;;;;;;15.82;9.10;;;;;;;-2.55;100.00;103301.19;5093911;28;20190;-71
2023/04/03 05:09:00;;;;;;;9.23;5.70;;;;;;;-2.55;100.00;103302.94;5093256;28;20056;-72
2023/04/03 05:11:26;;;;;;;7.75;3.60;;;;;;;-2.54;100.00;103297.72;5093388;28;20038;-71
2023/04/03 05:13:52;;;;;;;6.40;3.10;;;;;;;-2.52;100.00;103302.97;5092650;28;20028;-71
2023/04/03 05:16:17;;;;;;;6.85;2.92;;;;;;;-2.52;100.00;103309.03;5093725;28;20032;-71
2023/04/03 05:18:43;;;;;;;5.10;2.78;;;;;;;-2.53;100.00;103304.66;5093719;28;20032;-71
2023/04/03 05:21:08;;;;;;;7.88;2.70;;;;;;;-2.53;100.00;103315.09;5093045;28;20119;-70
2023/04/03 05:23:33;;;;;;;4.70;2.90;;;;;;;-2.52;100.00;103309.03;5093029;28;20040;-70
2023/04/03 05:25:59;;;;;;;7.82;2.97;;;;;;;-2.51;100.00;103309.88;5092805;28;20036;-70
2023/04/03 05:28:24;;;;;;;4.90;2.33;;;;;;;-2.52;100.00;103314.25;5093285;28;20038;-70
2023/04/03 05:30:55;;;;;;;7.47;2.95;;;;;;;-2.51;100.00;103316.00;5093484;28;20036;-71
2023/04/03 05:33:21;;;;;;;5.53;2.83;;;;;;;-2.46;100.00;103320.34;5093252;28;20063;-70
2023/04/03 05:35:46;;;;;;;7.75;2.40;;;;;;;-2.45;100.00;103320.34;5093122;28;20515;-72
2023/04/03 05:38:11;;;;;;;4.80;2.33;;;;;;;-2.44;100.00;103323.84;5075652;28;20139;-70
2023/04/03 05:40:37;;;;;;;5.45;2.90;;;;;;;-2.41;100.00;103319.50;5092861;28;20483;-70
2023/04/03 05:43:02;;;;;;;4.20;2.83;;;;;;;-2.38;100.00;103316.88;5074791;28;20039;-71
2023/04/03 05:45:28;;;;;;;5.75;3.15;;;;;;;-2.34;100.00;103315.19;5093050;28;20032;-71
2023/04/03 05:47:53;;;;;;;4.65;2.95;;;;;;;-2.31;100.00;103308.22;5074922;28;20029;-71
2023/04/03 05:50:19;;;;;;;7.18;3.40;;;;;;;-2.24;100.00;103316.97;5093006;28;20036;-71
2023/04/03 05:52:48;;;;;;;7.28;2.97;;;;;;;-2.18;100.00;103316.97;5092794;28;20028;-71
2023/04/03 05:55:14;;;;;;;5.00;2.72;;;;;;;-2.13;100.00;103322.19;5074596;28;20027;-71
2023/04/03 05:57:39;;;;;;;6.38;3.13;;;;;;;-2.05;100.00;103327.41;5093017;28;20065;-71
2023/04/03 06:00:07;;;;;;;10.13;3.63;;;;;;;-1.98;100.00;103329.19;5092480;28;20122;-71
2023/04/03 06:02:32;;;;;;;5.32;3.15;;;;;;;-1.89;100.00;103329.19;5092670;28;20047;-71
2023/04/03 06:04:57;;;;;;;8.23;3.88;;;;;;;-1.80;100.00;103331.81;5092293;28;20462;-71
2023/04/03 06:07:27;;;;;;;6.28;3.65;;;;;;;-1.68;100.00;103335.31;5092698;28;20048;-71
2023/04/03 06:09:53;;;;;;;5.57;3.65;;;;;;;-1.55;100.00;103331.84;5093049;28;20116;-71
2023/04/03 06:12:19;;;;;;;9.05;3.67;;;;;;;-1.37;100.00;103343.13;5092649;28;20056;-71
2023/04/03 06:14:45;;;;;;;6.90;3.40;;;;;;;-1.23;100.00;103344.00;5074323;28;20063;-71
2023/04/03 06:17:12;;;;;;;6.20;3.35;;;;;;;-1.11;100.00;103343.97;5074858;28;20028;-71
2023/04/03 06:19:37;;;;;;;7.68;3.85;;;;;;;-0.99;100.00;103348.31;5093028;28;20036;-71
2023/04/03 06:22:02;;;;;;;11.82;3.60;;;;;;;-0.90;100.00;103350.94;5092497;28;20031;-71
2023/04/03 06:24:28;;;;;;;6.57;3.38;;;;;;;-0.79;100.00;103353.53;5092759;28;20055;-71
2023/04/03 06:26:53;;;;;;;6.78;3.92;;;;;;;-0.67;100.00;103351.72;5095084;28;20036;-71
2023/04/03 06:29:19;;;;;;;7.55;3.60;;;;;;;-0.57;100.00;103354.34;5096762;28;20040;-71
2023/04/03 06:31:45;;;;;;;7.85;3.40;;;;;;;-0.48;100.00;103355.16;5096243;28;20024;-71
2023/04/03 06:34:11;;;;;;;7.85;3.63;;;;;;;-0.38;100.00;103355.09;5096636;28;20035;-72
2023/04/03 06:36:38;;;;;;;4.78;2.83;;;;;;;-0.30;100.00;103351.59;5096058;28;20361;-72
2023/04/03 06:39:04;;;;;;;5.63;3.40;;;;;;;-0.20;100.00;103353.28;5096082;28;20039;-72
2023/04/03 06:41:30;;;;;;;7.70;4.20;;;;;;;-0.09;100.00;103366.31;5095845;28;20028;-72
2023/04/03 06:43:57;;;;;;;4.95;3.03;;;;;;;0.00;100.00;103361.03;5095533;28;20032;-72
2023/04/03 06:46:23;;;;;;;6.05;3.15;;;;;;;0.10;100.00;103359.22;5095756;28;20046;-72
2023/04/03 06:48:49;;;;;;;5.32;3.13;;;;;;;0.19;100.00;103355.69;5095957;28;20024;-72
2023/04/03 06:51:41;;;;;;;5.88;3.22;;;;;;;0.29;100.00;103347.75;5095925;28;20032;-71
2023/04/03 06:54:08;;;;;;;6.22;3.60;;;;;;;0.39;100.00;103350.28;5091156;28;20044;-72
2023/04/03 06:56:33;;;;;;;9.63;3.53;;;;;;;0.47;100.00;103348.50;5095587;28;20384;-72
2023/04/03 06:58:59;;;;;;;7.53;3.05;;;;;;;0.56;100.00;103350.19;5095833;28;20032;-72
2023/04/03 07:01:27;;;;;;;5.63;3.08;;;;;;;0.66;100.00;103350.06;5095644;28;20038;-72
2023/04/03 07:03:53;;;;;;;8.18;3.10;;;;;;;0.77;100.00;103355.22;5095778;28;20057;-72
2023/04/03 07:06:19;;;;;;;8.45;3.90;;;;;;;0.88;100.00;103360.34;5095737;28;20052;-72
2023/04/03 07:08:46;;;;;;;5.85;3.10;;;;;;;1.01;100.00;103377.72;5095826;28;20097;-72
2023/04/03 07:11:12;;;;;;;10.55;2.97;;;;;;;1.10;100.00;103370.66;5095685;28;20379;-71
2023/04/03 07:13:38;;;;;;;6.28;2.92;;;;;;;1.21;100.00;103377.53;5095507;28;20036;-70
2023/04/03 07:16:05;;;;;;;7.80;3.20;;;;;;;1.33;100.00;103371.28;5095688;28;20028;-69
2023/04/03 07:18:31;;;;;;;6.20;2.90;;;;;;;1.48;100.00;103379.84;5095058;28;20176;-69
2023/04/03 07:20:56;;;;;;;4.47;3.10;;;;;;;1.59;100.00;103376.19;5077129;28;20036;-70
2023/04/03 07:23:22;;;;;;;5.22;2.67;;;;;;;1.71;100.00;103380.44;5095267;28;20032;-70
2023/04/03 07:25:50;;;;;;;6.93;3.38;;;;;;;1.83;100.00;103387.28;5076803;28;20039;-68
2023/04/03 07:28:17;;;;;;;7.65;2.35;;;;;;;1.93;100.00;103388.03;5095175;28;20082;-71
2023/04/03 07:30:48;;;;;;;7.40;2.72;;;;;;;2.01;100.00;103387.94;5095190;28;20032;-68
2023/04/03 07:33:14;;;;;;;;;;;;;;;2.16;100.00;103390.34;5095480;28;20115;-68
2023/04/03 07:35:40;;;;;;;4.28;2.50;;;;;;;2.25;100.00;103386.72;5095125;28;19916;-69
2023/04/03 07:38:07;;;;;;;5.15;2.60;;;;;;;2.35;100.00;103388.31;5076181;28;20369;-71
2023/04/03 07:40:32;;;;;;;4.22;2.15;;;;;;;2.43;100.00;103383.81;5095153;28;20035;-69
2023/04/03 07:42:59;;;;;;;5.82;2.55;;;;;;;2.53;100.00;103394.19;5094734;28;20360;-69
2023/04/03 07:45:25;;;;;;;5.85;2.80;;;;;;;2.60;100.00;103398.47;5094917;28;20341;-69
2023/04/03 07:47:51;;;;;;;8.23;3.15;;;;;;;2.72;100.00;103395.63;5095362;28;20032;-70
2023/04/03 07:50:17;;;;;;;8.70;3.08;;;;;;;2.82;100.00;103393.69;5094976;28;20106;-70
2023/04/03 07:52:43;;;;;;;6.47;2.65;;;;;;;2.97;100.00;103396.06;5095192;28;20032;-69
2023/04/03 07:55:08;;;;;;;5.53;2.47;;;;;;;3.20;100.00;103393.94;5094718;28;20406;-69
2023/04/03 07:57:34;;;;;;;4.45;2.45;;;;;;;3.39;100.00;103390.03;5094702;28;20036;-71
2023/04/03 08:00:00;;;;;;;10.23;2.80;;;;;;;3.53;100.00;103397.66;5076281;28;20040;-71
2023/04/03 08:02:26;;;;;;;4.68;2.60;;;;;;;3.75;100.00;103408.63;5094741;28;20529;-70
2023/04/03 08:04:52;;;;;;;5.80;2.15;;;;;;;4.08;100.00;103407.94;5094542;28;20036;-70
2023/04/03 08:07:17;;;;;;;5.50;2.40;;;;;;;4.44;100.00;103408.88;5093862;28;20468;-70
2023/04/03 08:09:44;;;;;;;5.47;2.63;;;;;;;4.78;100.00;103415.97;5094956;28;20039;-69
2023/04/03 08:12:11;;;;;;;3.65;2.08;;;;;;;5.27;100.00;103417.31;5094444;28;20031;-69
2023/04/03 08:14:36;;;;;;;5.07;2.25;;;;;;;5.85;100.00;103411.28;5094262;28;20086;-71
2023/04/03 08:17:04;;;;;;;4.78;2.40;;;;;;;6.65;100.00;103422.06;5094241;28;20028;-70
2023/04/03 08:19:29;;;;;;;7.35;2.10;;;;;;;7.06;100.00;103418.94;5094832;28;20035;-70
2023/04/03 08:21:55;;;;;;;4.55;2.20;;;;;;;7.38;100.00;103415.16;5094193;28;20028;-70
2023/04/03 08:24:20;;;;;;;6.13;2.20;;;;;;;7.52;100.00;103421.75;5094176;28;20024;-70
2023/04/03 08:26:46;;;;;;;7.80;2.45;;;;;;;7.52;100.00;103414.63;5094240;28;20024;-71
2023/04/03 08:29:11;;;;;;;5.22;2.38;;;;;;;7.43;100.00;103414.97;5076016;28;20032;-70
2023/04/03 08:31:36;;;;;;;8.63;2.30;;;;;;;7.16;100.00;103407.09;5093937;28;20420;-71
2023/04/03 08:34:02;;;;;;;5.25;2.28;;;;;;;7.05;100.00;103412.78;5093781;28;20079;-70
2023/04/03 08:36:29;;;;;;;4.40;2.08;;;;;;;7.01;100.00;103413.78;5093983;28;20461;-71
2023/04/03 08:38:56;;;;;;;5.13;2.17;;;;;;;7.01;100.00;103412.94;5093668;28;20407;-70
2023/04/03 08:41:33;;;;;;;5.35;2.20;;;;;;;7.11;100.00;103413.50;5093778;28;20468;-68
2023/04/03 08:44:17;;;;;;;4.38;2.28;;;;;;;7.14;100.00;103419.53;5094394;28;20042;-70
2023/04/03 08:46:56;;;;;;;7.22;2.38;;;;;;;7.24;100.00;103415.66;5094105;28;20024;-70
2023/04/03 08:49:31;;;;;;;4.63;2.10;;;;;;;7.61;100.00;103417.88;5093331;28;20039;-69
2023/04/03 08:51:59;;;;;;;5.10;2.80;;;;;;;7.94;95.77;103416.63;5093925;28;20484;-69
2023/04/03 08:54:30;;;;;;;3.63;2.15;;;;;;;8.46;87.08;103420.81;5093195;28;20361;-71
2023/04/03 08:56:57;;;;;;;9.57;2.55;;;;;;;9.25;84.41;103423.69;5093880;28;20082;-70
2023/04/03 08:59:41;;;;;;;6.97;2.20;;;;;;;10.30;67.79;103410.94;5093451;28;20140;-71
2023/04/03 09:02:28;;;;;;;5.55;1.90;;;;;;;11.25;60.62;103401.75;5075704;28;20051;-71
2023/04/03 09:04:53;;;;;;;5.70;2.25;;;;;;;12.35;56.75;103412.66;5093605;28;20076;-71
2023/04/03 09:07:38;;;;;;;5.47;2.15;;;;;;;13.29;52.55;103398.22;5093603;28;20066;-72
2023/04/03 09:10:03;;;;;;;7.32;2.20;;;;;;;14.14;49.88;103406.25;5093734;28;20024;-72
2023/04/03 09:13:06;;;;;;;6.07;2.00;;;;;;;15.02;45.56;103401.31;5093791;28;20028;-72
2023/04/03 09:15:32;;;;;;;4.70;2.20;;;;;;;15.88;43.49;103401.56;5056768;28;20578;-72
2023/04/03 09:18:22;;;;;;;4.30;1.70;;;;;;;16.01;39.83;103411.28;5093611;28;20074;-71
2023/04/03 09:21:02;;;;;;;5.45;1.90;;;;;;;15.79;40.06;103403.94;5093178;28;20043;-72
2023/04/03 09:23:44;;;;;;;5.28;1.88;;;;;;;15.92;39.90;103406.59;5093455;28;20031;-72
2023/04/03 09:26:17;;;;;;;4.05;1.85;;;;;;;16.16;39.58;103403.09;5093536;28;20028;-71
2023/04/03 09:28:44;;;;;;;4.47;1.92;;;;;;;16.08;39.67;103400.97;5093194;28;20080;-71
2023/04/03 09:31:24;;;;;;;2.75;1.48;;;;;;;16.30;36.93;103396.66;5093127;28;20040;-71
2023/04/03 09:33:55;;;;;;;4.60;1.90;;;;;;;16.35;36.71;103392.69;5093655;28;20051;-72
2023/04/03 09:36:40;;;;;;;6.47;1.90;;;;;;;16.56;37.47;103386.66;5094075;28;20081;-72
2023/04/03 09:39:11;;;;;;;6.80;1.60;;;;;;;17.02;36.07;103388.53;5093074;28;20067;-72
2023/04/03 09:41:36;;;;;;;5.20;2.20;;;;;;;17.14;35.63;103394.78;5093025;28;20069;-75
2023/04/03 09:44:02;;;;;;;8.93;1.50;;;;;;;16.28;34.47;103383.34;5092835;28;20377;-77
2023/04/03 09:46:32;;;;;;;8.10;1.52;;;;;;;16.45;34.65;103367.78;5074954;28;20053;-73
2023/04/03 09:49:04;;;;;;;8.02;1.50;;;;;;;17.05;35.76;103368.59;5093034;28;20059;-73
2023/04/03 09:51:31;;;;;;;2.58;1.50;;;;;;;17.28;33.88;103372.16;5092536;28;20188;-73
2023/04/03 09:53:57;;;;;;;4.95;1.60;;;;;;;17.12;34.12;103371.66;5092944;28;20058;-73
2023/04/03 09:56:28;;;;;;;4.88;1.38;;;;;;;17.28;32.92;103369.47;5093222;28;20077;-73
2023/04/03 09:58:59;;;;;;;;;;;;;;;17.04;31.66;103364.19;5093261;28;20091;-74
2023/04/03 10:01:29;;;;;;;5.45;1.42;;;;;;;16.68;32.54;103364.22;5094881;28;20450;-73
2023/04/03 10:04:11;;;;;;;3.97;1.63;;;;;;;16.44;31.43;103358.88;5097681;28;20020;-73
2023/04/03 10:06:49;;;;;;;1.05;0.93;;;;;;;16.84;31.74;103358.50;5097743;28;20048;-72
2023/04/03 10:09:20;;;;;;;1.75;1.08;;;;;;;16.31;28.13;103358.09;5096867;28;20532;-72
2023/04/03 10:12:09;;;;;;;2.85;1.10;;;;;;;17.16;29.07;103357.84;5079062;28;20117;-72
2023/04/03 10:14:37;;;;;;;1.77;0.93;;;;;;;17.28;27.60;103351.47;5097633;28;20031;-73
2023/04/03 10:17:09;;;;;;;3.00;0.95;;;;;;;17.29;27.71;103346.97;5096521;28;20106;-72
2023/04/03 10:19:45;;;;;;;4.70;1.00;;;;;;;17.84;29.13;103349.72;5097139;28;20055;-72
2023/04/03 10:22:40;;;;;;;4.25;1.10;;;;;;;17.63;30.14;103342.41;5096936;28;20070;-72
2023/04/03 10:25:29;;;;;;;3.13;1.33;;;;;;;17.59;28.73;103350.84;5096865;28;20032;-74
2023/04/03 10:28:06;;;;;;;1.92;0.90;;;;;;;17.44;27.91;103340.34;5097050;28;20044;-74
2023/04/03 10:31:00;;;;;;;4.05;1.30;;;;;;;17.59;27.77;103338.25;5096481;28;20036;-73
2023/04/03 10:46:35;;;;;;;5.68;1.30;;;;;;;17.77;26.99;103332.34;5129923;27;20905;-73
2023/04/03 10:49:10;;;;;;;2.22;0.98;;;;;;;18.22;27.40;103343.00;5111193;28;20075;-73
2023/04/03 10:51:36;;;;;;;2.30;1.10;;;;;;;18.74;26.01;103334.16;5130097;28;20110;-71
2023/04/03 10:54:23;;;;;;;2.55;1.63;;;;;;;18.79;26.54;103340.84;5129219;27;20456;-72
2023/04/03 10:56:55;;;;;;;1.48;1.20;;;;;;;18.08;25.13;103340.63;5129628;28;20034;-71
2023/04/03 10:59:30;;;;;;;1.20;1.00;;;;;;;18.33;25.63;103328.59;5129701;27;20028;-73
2023/04/03 11:02:11;;;;;;;1.92;1.17;;;;;;;17.44;25.00;103339.50;5129257;28;20028;-74
2023/04/03 11:04:40;;;;;;;6.47;1.30;;;;;;;18.46;25.50;103331.13;5129846;27;20084;-75
2023/04/03 11:07:15;;;;;;;1.73;1.02;;;;;;;18.56;23.65;103331.22;5129079;27;20118;-74
2023/04/03 11:09:46;;;;;;;3.55;1.30;;;;;;;18.64;23.74;103328.69;5129876;27;20108;-74
2023/04/03 11:12:27;;;;;;;2.60;1.30;;;;;;;18.21;24.00;103324.25;5129324;28;20027;-76
2023/04/03 11:14:55;;;;;;;4.80;0.90;;;;;;;17.60;24.49;103326.50;5129146;27;20023;-75
2023/04/03 11:17:21;;;;;;;1.95;0.90;;;;;;;16.84;25.02;103320.88;5131179;27;20027;-72
2023/04/03 11:20:00;;;;;;;1.88;1.10;;;;;;;17.63;27.37;103325.41;5131981;27;20031;-77
2023/04/03 11:22:31;;;;;;;3.65;1.00;;;;;;;17.71;24.45;103320.25;5129216;28;20130;-75
2023/04/03 11:25:04;;;;;;;;;;;;;;;17.25;24.82;103308.66;5129240;27;20104;-75
2023/04/03 11:27:38;;;;;;;1.05;0.85;;;;;;;18.57;25.18;103312.19;5128943;27;19962;-75
2023/04/03 11:30:09;;;;;;;2.78;1.20;;;;;;;18.79;24.34;103310.31;5108315;28;20552;-73
2023/04/03 11:32:35;;;;;;;1.90;1.00;;;;;;;18.80;24.79;103314.75;5109224;28;20024;-73
2023/04/03 11:35:04;;;;;;;2.22;1.20;;;;;;;18.91;24.70;103294.94;5108646;28;20040;-73
2023/04/03 11:37:36;;;;;;;3.00;1.00;;;;;;;18.98;25.24;103296.13;5108692;28;20031;-71
2023/04/03 11:40:04;;;;;;;1.40;1.00;;;;;;;19.08;26.26;103293.44;5089982;28;20094;-72